Time;durP1;ratioP1;P1;durP2;ratioP2;P2;SDS_P1;SDS_P2;PMS_P1;PMS_P2;Temp;Humidity;BMP_temperature;BMP_pressure;BME280_temperature;BME280_humidity;BME280_pressure;Samples;Min_cycle;Max_cycle;Signal;HPM_P1;HPM_P2
2021/05/05 00:03:07;;;;;;;3.80;2.03;;;20.50;48.20;;;;;;10326943;28;21004;-15
2021/05/05 00:08:29;;;;;;;3.37;2.10;;;20.50;48.00;;;;;;10333051;28;20218;-14
2021/05/05 00:13:51;;;;;;;2.97;1.90;;;20.50;47.90;;;;;;10331165;28;20218;-13
2021/05/05 00:19:13;;;;;;;2.93;1.80;;;20.50;48.30;;;;;;10330255;28;20603;-15
2021/05/05 00:24:35;;;;;;;2.60;1.77;;;20.50;48.10;;;;;;10331002;28;20671;-12
2021/05/05 00:29:58;;;;;;;3.50;2.00;;;20.50;48.10;;;;;;10330204;28;20211;-16
2021/05/05 00:35:20;;;;;;;2.23;1.40;;;20.40;48.20;;;;;;10330374;28;20215;-15
2021/05/05 00:40:41;;;;;;;2.17;1.40;;;20.50;47.90;;;;;;10329507;28;20237;-16
2021/05/05 00:46:05;;;;;;;3.43;2.07;;;20.40;48.10;;;;;;10329759;28;20686;-14
2021/05/05 00:51:26;;;;;;;2.80;1.50;;;20.40;48.10;;;;;;10329369;28;20746;-14
2021/05/05 00:56:48;;;;;;;2.37;1.60;;;20.40;47.40;;;;;;10326837;28;20200;-14
2021/05/05 01:02:11;;;;;;;2.03;1.67;;;20.40;48.30;;;;;;10321107;28;20262;-13
2021/05/05 01:07:33;;;;;;;1.57;0.90;;;20.40;47.90;;;;;;10289289;28;20263;-13
2021/05/05 01:12:56;;;;;;;2.73;1.50;;;20.40;48.10;;;;;;10288232;28;20703;-15
2021/05/05 01:18:18;;;;;;;2.40;1.13;;;20.40;47.90;;;;;;10323508;28;20207;-16
2021/05/05 01:23:41;;;;;;;2.57;1.30;;;20.40;47.90;;;;;;10329130;28;20559;-15
2021/05/05 01:29:02;;;;;;;1.67;1.23;;;20.40;48.00;;;;;;10328380;28;20293;-14
2021/05/05 01:34:24;;;;;;;2.27;1.27;;;20.40;47.80;;;;;;10327791;28;20214;-14
2021/05/05 01:39:46;;;;;;;1.50;1.10;;;20.40;48.20;;;;;;10327961;28;20572;-13
2021/05/05 01:45:09;;;;;;;1.47;1.07;;;20.40;48.00;;;;;;10328020;28;20215;-12
2021/05/05 01:50:31;;;;;;;2.53;1.20;;;20.40;47.80;;;;;;10327941;28;20270;-15
2021/05/05 01:55:53;;;;;;;1.83;1.27;;;20.30;48.10;;;;;;10327754;28;20221;-15
2021/05/05 02:01:16;;;;;;;1.90;1.23;;;20.40;48.00;;;;;;10327740;28;20245;-16
2021/05/05 02:06:37;;;;;;;1.60;1.13;;;20.40;48.20;;;;;;10287794;28;20192;-15
2021/05/05 02:12:00;;;;;;;1.57;1.00;;;20.30;47.90;;;;;;10292968;28;20226;-16
2021/05/05 02:17:21;;;;;;;1.47;0.97;;;20.30;47.70;;;;;;10336275;28;20618;-14
2021/05/05 02:22:43;;;;;;;1.83;1.20;;;20.30;48.20;;;;;;10338442;28;20242;-14
2021/05/05 02:28:06;;;;;;;1.53;0.90;;;20.20;48.00;;;;;;10334535;28;20198;-14
2021/05/05 02:33:27;;;;;;;1.23;0.87;;;20.30;47.80;;;;;;10325893;28;20682;-14
2021/05/05 02:38:49;;;;;;;1.73;0.93;;;20.30;48.00;;;;;;10334442;28;20269;-15
2021/05/05 02:44:12;;;;;;;3.20;1.17;;;20.30;48.20;;;;;;10333617;28;20206;-15
2021/05/05 02:49:34;;;;;;;2.20;1.03;;;20.30;47.80;;;;;;10328869;28;20683;-16
2021/05/05 02:54:55;;;;;;;1.50;1.00;;;20.20;47.90;;;;;;10332460;28;20274;-15
2021/05/05 03:00:19;;;;;;;1.87;0.87;;;20.20;48.10;;;;;;10332737;28;20698;-13
2021/05/05 03:05:41;;;;;;;1.27;0.83;;;20.20;48.30;;;;;;10333188;28;20195;-14
2021/05/05 03:11:03;;;;;;;1.23;0.83;;;20.20;48.20;;;;;;10332502;28;20223;-14
2021/05/05 03:16:25;;;;;;;1.37;0.90;;;20.30;48.10;;;;;;10332672;28;20196;-16
2021/05/05 03:21:47;;;;;;;2.30;0.83;;;20.30;48.10;;;;;;10332193;28;20215;-15
2021/05/05 03:27:09;;;;;;;1.43;0.70;;;20.20;47.90;;;;;;10331639;28;20196;-17
2021/05/05 03:32:31;;;;;;;1.47;1.00;;;20.20;48.20;;;;;;10331372;28;20227;-14
2021/05/05 03:37:53;;;;;;;2.57;0.90;;;20.20;48.10;;;;;;10331427;28;20195;-14
2021/05/05 03:43:15;;;;;;;1.60;0.97;;;20.20;47.80;;;;;;10371638;23;20291;-16
2021/05/05 03:48:37;;;;;;;1.10;0.73;;;20.30;47.70;;;;;;10416969;28;20264;-16
2021/05/05 03:53:59;;;;;;;1.90;1.13;;;20.30;47.60;;;;;;10416668;28;20216;-15
2021/05/05 03:59:20;;;;;;;0.90;0.63;;;20.30;47.80;;;;;;10377732;28;20253;-17
2021/05/05 04:04:43;;;;;;;1.77;0.77;;;20.20;47.80;;;;;;10376730;28;20218;-15
2021/05/05 04:10:06;;;;;;;1.20;0.60;;;20.20;47.70;;;;;;10377000;28;20723;-15
2021/05/05 04:15:28;;;;;;;1.23;0.80;;;20.30;47.50;;;;;;10375097;28;20281;-19
2021/05/05 04:20:50;;;;;;;1.87;0.80;;;20.20;47.60;;;;;;10375219;28;20821;-15
2021/05/05 04:26:12;;;;;;;1.90;0.80;;;20.20;47.60;;;;;;10375411;28;20210;-17
2021/05/05 04:31:33;;;;;;;1.40;0.80;;;20.20;47.80;;;;;;10394881;28;20218;-14
2021/05/05 04:36:56;;;;;;;1.53;1.00;;;20.30;47.40;;;;;;10417395;28;20217;-17
2021/05/05 04:42:17;;;;;;;2.13;0.60;;;20.20;47.70;;;;;;10418013;28;20233;-17
2021/05/05 04:47:41;;;;;;;1.40;0.60;;;20.30;47.40;;;;;;10420739;28;20208;-15
2021/05/05 04:53:03;;;;;;;1.10;0.70;;;20.30;47.60;;;;;;10413762;28;20225;-13
2021/05/05 04:58:25;;;;;;;1.60;0.70;;;20.20;47.40;;;;;;10414607;28;20204;-17
2021/05/05 05:03:46;;;;;;;1.27;0.90;;;20.20;47.50;;;;;;10425016;28;20221;-16
2021/05/05 05:09:09;;;;;;;1.40;0.73;;;20.20;47.50;;;;;;10423941;28;20194;-15
2021/05/05 05:14:30;;;;;;;0.73;0.60;;;20.20;47.70;;;;;;10425044;28;20222;-15
2021/05/05 05:19:52;;;;;;;0.57;0.57;;;20.20;47.50;;;;;;10393083;28;20198;-15
2021/05/05 05:25:14;;;;;;;1.47;0.83;;;20.20;47.90;;;;;;10395832;28;20217;-14
2021/05/05 05:30:36;;;;;;;2.80;0.57;;;20.20;47.70;;;;;;10426892;28;20206;-19
2021/05/05 05:35:57;;;;;;;2.30;0.50;;;20.20;47.60;;;;;;10426329;28;20221;-17
2021/05/05 05:41:20;;;;;;;0.80;0.60;;;20.20;48.10;;;;;;10420752;28;20719;-18
2021/05/05 05:46:42;;;;;;;1.53;0.70;;;20.20;47.80;;;;;;10419575;28;20198;-17
2021/05/05 05:52:04;;;;;;;1.30;0.60;;;20.20;47.90;;;;;;10426664;28;20744;-19
2021/05/05 05:57:26;;;;;;;1.20;0.73;;;20.20;47.90;;;;;;10425138;28;20259;-15
2021/05/05 06:02:48;;;;;;;1.53;0.63;;;20.20;48.10;;;;;;10419717;28;20209;-17
2021/05/05 06:08:10;;;;;;;1.07;0.43;;;20.50;47.30;;;;;;10424782;28;20742;-16
2021/05/05 06:13:33;;;;;;;2.43;0.70;;;20.90;46.50;;;;;;10427362;28;20596;-15
2021/05/05 06:18:55;;;;;;;1.10;0.53;;;21.30;45.50;;;;;;10426586;28;20198;-17
2021/05/05 06:24:16;;;;;;;1.27;0.73;;;21.80;44.80;;;;;;10399410;28;20696;-19
2021/05/05 06:29:39;;;;;;;1.00;0.70;;;22.10;44.20;;;;;;10385344;28;20195;-17
2021/05/05 06:35:00;;;;;;;1.77;0.70;;;22.30;43.70;;;;;;10425026;28;20229;-17
2021/05/05 06:40:22;;;;;;;1.83;0.60;;;22.40;43.50;;;;;;10427312;28;20758;-16
2021/05/05 06:45:44;;;;;;;1.73;0.50;;;22.50;43.40;;;;;;10427904;28;20229;-17
2021/05/05 06:51:06;;;;;;;1.57;0.80;;;22.60;43.20;;;;;;10430395;28;20198;-17
2021/05/05 06:56:28;;;;;;;0.90;0.60;;;22.70;43.00;;;;;;10427496;28;20190;-14
2021/05/05 07:01:50;;;;;;;1.60;0.70;;;22.70;42.80;;;;;;10422871;28;20723;-17
2021/05/05 07:07:12;;;;;;;1.47;0.60;;;22.80;42.70;;;;;;10427038;28;20243;-15
2021/05/05 07:12:33;;;;;;;1.00;0.43;;;22.90;42.60;;;;;;10427157;28;20228;-16
2021/05/05 07:17:56;;;;;;;1.40;0.70;;;23.00;42.30;;;;;;10425094;28;20197;-16
2021/05/05 07:23:18;;;;;;;1.70;0.70;;;23.00;42.20;;;;;;10422184;28;20209;-14
2021/05/05 07:28:40;;;;;;;2.20;0.80;;;23.00;42.20;;;;;;10417026;28;20254;-15
2021/05/05 07:34:02;;;;;;;1.27;0.60;;;23.10;42.10;;;;;;10424801;28;20799;-15
2021/05/05 07:45:12;;;;;;;1.90;0.60;;;23.20;41.80;;;;;;10423432;28;20681;-14
2021/05/05 07:50:35;;;;;;;0.73;0.50;;;23.20;41.80;;;;;;10423587;28;20277;-15
2021/05/05 07:55:59;;;;;;;1.80;1.00;;;23.30;41.60;;;;;;10424121;28;20705;-18
2021/05/05 08:01:21;;;;;;;2.00;0.70;;;23.30;41.60;;;;;;10421868;28;20221;-15
2021/05/05 08:06:43;;;;;;;1.83;0.70;;;23.30;41.70;;;;;;10418351;28;20249;-17
2021/05/05 08:12:05;;;;;;;2.73;0.63;;;23.30;41.60;;;;;;10423505;28;20225;-17
2021/05/05 08:17:28;;;;;;;2.70;0.80;;;23.50;41.30;;;;;;10422937;28;20197;-17
2021/05/05 08:22:50;;;;;;;1.50;0.80;;;23.30;41.90;;;;;;10422119;28;20209;-14
2021/05/05 08:28:12;;;;;;;4.17;0.90;;;22.90;42.60;;;;;;10422798;28;20198;-15
2021/05/05 08:33:34;;;;;;;1.80;0.87;;;22.70;43.00;;;;;;10423731;28;20597;-18
2021/05/05 08:38:57;;;;;;;1.93;0.77;;;22.50;43.40;;;;;;10383873;28;20658;-17
2021/05/05 08:44:19;;;;;;;2.03;0.60;;;22.30;43.70;;;;;;10382798;28;20298;-13
2021/05/05 08:49:41;;;;;;;1.10;0.67;;;22.20;44.20;;;;;;10381328;28;20266;-16
2021/05/05 08:55:04;;;;;;;2.27;0.80;;;22.20;44.20;;;;;;10418121;28;20605;-18
2021/05/05 09:00:27;;;;;;;1.27;0.70;;;22.20;44.10;;;;;;10379331;28;20190;-15
2021/05/05 09:05:52;;;;;;;0.93;0.67;;;22.20;44.40;;;;;;10385441;28;20221;-16
2021/05/05 09:11:15;;;;;;;1.83;0.80;;;22.10;44.40;;;;;;10419329;28;20198;-18
2021/05/05 09:16:37;;;;;;;2.53;1.00;;;22.10;44.40;;;;;;10421223;28;20204;-17
2021/05/05 09:21:58;;;;;;;2.43;0.97;;;22.10;44.20;;;;;;10417968;28;20213;-16
2021/05/05 09:27:21;;;;;;;2.13;0.73;;;22.00;44.60;;;;;;10419443;28;20197;-15
2021/05/05 09:32:49;;;;;;;1.93;1.00;;;22.00;44.60;;;;;;10428707;28;20221;-18
2021/05/05 09:38:11;;;;;;;1.60;0.80;;;22.10;44.10;;;;;;10425411;28;20197;-15
2021/05/05 09:43:36;;;;;;;1.97;0.80;;;22.00;44.40;;;;;;10427380;23;20593;-16
2021/05/05 09:49:20;;;;;;;1.53;0.70;;;21.90;44.60;;;;;;10373269;28;20256;-15
2021/05/05 09:54:54;;;;;;;2.23;0.90;;;22.00;44.40;;;;;;10371862;28;20610;-17
2021/05/05 10:00:18;;;;;;;4.00;0.87;;;22.10;44.40;;;;;;10376159;28;20257;-18
2021/05/05 10:05:40;;;;;;;1.43;0.80;;;22.00;44.60;;;;;;10375455;28;20211;-17
2021/05/05 10:11:01;;;;;;;3.07;0.73;;;21.90;44.60;;;;;;10336613;28;20209;-15
2021/05/05 10:16:25;;;;;;;1.20;0.77;;;21.90;44.60;;;;;;10372808;28;20273;-19
2021/05/05 10:21:51;;;;;;;2.20;0.83;;;21.90;44.70;;;;;;10374204;28;20199;-14
2021/05/05 10:27:14;;;;;;;1.97;0.90;;;21.90;44.70;;;;;;10354580;28;20262;-16
2021/05/05 10:32:37;;;;;;;2.90;1.10;;;22.00;44.70;;;;;;10330486;28;20270;-15
2021/05/05 10:38:00;;;;;;;2.20;0.83;;;21.90;44.40;;;;;;10335048;28;20552;-19
2021/05/05 10:43:23;;;;;;;1.90;0.87;;;21.80;44.70;;;;;;10334106;28;20277;-14
2021/05/05 10:49:05;;;;;;;6.20;0.77;;;21.90;44.80;;;;;;10366204;28;20195;-13
2021/05/05 10:54:50;;;;;;;2.00;0.80;;;22.00;44.60;;;;;;10370125;28;20723;-15
2021/05/05 11:00:14;;;;;;;1.27;0.70;;;21.80;44.50;;;;;;10373164;28;20217;-16
2021/05/05 11:05:38;;;;;;;1.37;0.70;;;21.80;44.50;;;;;;10372732;28;20224;-17
2021/05/05 11:10:59;;;;;;;2.23;0.90;;;21.90;44.60;;;;;;10373852;28;20205;-14
2021/05/05 11:16:21;;;;;;;1.97;0.80;;;21.80;44.40;;;;;;10372310;28;20230;-15
2021/05/05 11:21:43;;;;;;;1.87;0.90;;;21.80;44.50;;;;;;10373033;28;20203;-15
2021/05/05 11:27:08;;;;;;;0.90;0.60;;;21.80;44.70;;;;;;10357295;28;20202;-17
2021/05/05 11:32:31;;;;;;;2.13;1.00;;;22.00;44.20;;;;;;10332578;28;20647;-15
2021/05/05 11:38:18;;;;;;;2.27;1.20;;;22.00;44.00;;;;;;10348267;28;20206;-14
2021/05/05 11:43:43;;;;;;;1.80;0.83;;;22.10;43.80;;;;;;10343181;28;20321;-15
2021/05/05 11:49:05;;;;;;;2.43;1.00;;;22.10;43.80;;;;;;10370319;28;20594;-17
2021/05/05 11:54:31;;;;;;;1.40;0.80;;;22.10;44.70;;;;;;10371880;28;20222;-16
2021/05/05 11:59:53;;;;;;;2.10;1.10;;;22.20;44.20;;;;;;10370827;28;20202;-17
2021/05/05 12:05:25;;;;;;;1.80;0.87;;;22.20;44.20;;;;;;10371461;28;20214;-13
2021/05/05 12:10:49;;;;;;;1.50;0.87;;;22.20;43.90;;;;;;10371928;28;20198;-16
2021/05/05 12:16:15;;;;;;;1.17;0.80;;;22.20;44.00;;;;;;10372833;28;20223;-18
2021/05/05 12:21:36;;;;;;;2.43;1.03;;;22.30;44.10;;;;;;10371016;28;20650;-13
2021/05/05 12:27:06;;;;;;;1.53;0.73;;;22.30;43.90;;;;;;10368281;28;20593;-14
2021/05/05 12:32:42;;;;;;;1.43;0.83;;;22.30;43.70;;;;;;10364563;28;20227;-16
2021/05/05 12:38:09;;;;;;;1.73;0.90;;;22.30;44.00;;;;;;10367698;28;20589;-14
2021/05/05 12:43:32;;;;;;;3.57;0.90;;;22.40;44.10;;;;;;10368797;28;20229;-16
2021/05/05 12:48:56;;;;;;;2.60;1.00;;;22.40;43.60;;;;;;10370702;28;20206;-17
2021/05/05 12:54:20;;;;;;;1.43;0.63;;;22.40;43.80;;;;;;10368188;28;20706;-14
2021/05/05 12:59:44;;;;;;;3.70;0.60;;;22.20;44.30;;;;;;10364181;28;20209;-15
2021/05/05 13:05:07;;;;;;;1.30;0.70;;;22.00;44.50;;;;;;10368000;28;20214;-19
2021/05/05 13:10:31;;;;;;;1.23;0.70;;;22.10;44.70;;;;;;10369822;28;20198;-18
2021/05/05 13:16:12;;;;;;;2.03;0.87;;;22.20;44.60;;;;;;10368782;28;20222;-17
2021/05/05 13:32:58;;;;;;;1.47;0.43;;;22.30;44.70;;;;;;10364729;28;20602;-15
2021/05/05 13:38:24;;;;;;;1.30;0.70;;;22.40;44.60;;;;;;10369878;28;20194;-16
2021/05/05 13:43:49;;;;;;;1.30;0.77;;;22.50;44.40;;;;;;10369713;28;20225;-17
2021/05/05 13:49:21;;;;;;;2.00;0.90;;;22.70;44.00;;;;;;10368531;28;20194;-16
2021/05/05 13:54:43;;;;;;;1.97;0.70;;;22.80;43.80;;;;;;10363936;28;20231;-18
2021/05/05 14:00:06;;;;;;;1.70;0.70;;;22.90;43.80;;;;;;10348435;28;20594;-14
2021/05/05 14:05:33;;;;;;;1.10;0.50;;;22.90;43.50;;;;;;10364283;28;20582;-15
2021/05/05 14:10:56;;;;;;;1.60;0.70;;;22.90;43.20;;;;;;10372665;28;20273;-18
2021/05/05 14:16:18;;;;;;;1.40;0.50;;;22.90;43.40;;;;;;10375287;28;20298;-15
2021/05/05 14:21:41;;;;;;;0.90;0.60;;;22.90;43.70;;;;;;10374852;28;20670;-14
2021/05/05 14:27:03;;;;;;;1.13;0.60;;;23.00;43.50;;;;;;10374474;28;20693;-18
2021/05/05 14:32:24;;;;;;;0.90;0.50;;;23.00;43.40;;;;;;10369539;28;20296;-18
2021/05/05 14:37:54;;;;;;;1.07;0.60;;;23.10;43.20;;;;;;10375451;28;20198;-17
2021/05/05 14:43:23;;;;;;;1.33;0.47;;;23.00;43.40;;;;;;10373942;28;20293;-15
2021/05/05 14:48:45;;;;;;;1.00;0.50;;;23.20;42.90;;;;;;10375123;28;20195;-14
2021/05/05 14:54:09;;;;;;;0.93;0.47;;;23.30;42.70;;;;;;10373065;28;20222;-16
2021/05/05 14:59:30;;;;;;;1.47;0.60;;;23.20;42.70;;;;;;10373628;28;20610;-14
2021/05/05 15:04:52;;;;;;;0.90;0.60;;;23.20;42.70;;;;;;10373009;28;20219;-13
2021/05/05 15:10:20;;;;;;;4.03;0.50;;;23.30;42.60;;;;;;10367749;28;20194;-16
2021/05/05 15:38:42;;;;;;;2.80;0.90;;;22.70;44.00;;;;;;10370929;28;20186;-14
2021/05/05 15:44:25;;;;;;;1.77;0.60;;;22.50;44.20;;;;;;10381605;23;20234;-16
2021/05/05 15:49:51;;;;;;;0.80;0.40;;;22.60;44.10;;;;;;10376858;28;20222;-17
2021/05/05 15:55:14;;;;;;;1.40;0.70;;;22.50;44.10;;;;;;10386153;28;20214;-16
2021/05/05 16:00:41;;;;;;;2.70;0.70;;;22.50;44.30;;;;;;10348767;28;20211;-14
2021/05/05 16:11:53;;;;;;;2.47;0.67;;;22.30;44.20;;;;;;10345604;28;20191;-14
2021/05/05 16:17:15;;;;;;;1.03;0.50;;;22.20;44.60;;;;;;10362329;28;20264;-14
2021/05/05 16:22:41;;;;;;;2.70;0.60;;;22.10;44.70;;;;;;10384820;28;20198;-15
2021/05/05 16:28:23;;;;;;;2.80;0.90;;;22.20;45.00;;;;;;10385339;28;20277;-14
2021/05/05 16:56:39;;;;;;;5.97;3.30;;;22.40;44.30;;;;;;10360375;28;20246;-15
2021/05/05 17:07:58;;;;;;;7.13;3.40;;;22.30;44.50;;;;;;10350063;28;20220;-17
2021/05/05 17:13:20;;;;;;;10.13;4.00;;;22.30;44.80;;;;;;10381941;28;20234;-17
2021/05/05 17:18:45;;;;;;;9.77;3.93;;;22.30;44.60;;;;;;10386336;28;20206;-14
2021/05/05 17:24:19;;;;;;;10.77;3.87;;;22.40;44.70;;;;;;10381916;28;20206;-18
2021/05/05 17:29:46;;;;;;;9.43;4.03;;;22.40;44.50;;;;;;10378507;28;20195;-17
2021/05/05 17:47:12;;;;;;;10.97;4.40;;;22.40;44.20;;;;;;10260656;28;20259;-17
2021/05/05 18:15:24;;;;;;;7.53;3.90;;;22.40;44.40;;;;;;10378867;28;20248;-15
2021/05/05 18:20:53;;;;;;;10.43;4.20;;;22.50;44.70;;;;;;10369529;28;20991;-16
2021/05/05 18:26:26;;;;;;;7.50;3.70;;;23.10;43.30;;;;;;10344726;28;20219;-17
2021/05/05 18:31:49;;;;;;;10.33;3.77;;;22.70;44.20;;;;;;10340561;28;20274;-15
2021/05/05 18:37:10;;;;;;;8.97;3.33;;;22.50;44.50;;;;;;10340679;28;20257;-16
2021/05/05 18:42:35;;;;;;;7.97;3.10;;;22.40;44.80;;;;;;10343626;28;20202;-15
2021/05/05 19:16:37;;;;;;;5.57;3.30;;;22.80;44.50;;;;;;10378584;28;20273;-16
2021/05/05 21:10:03;;;;;;;3.23;1.90;;;22.80;43.20;;;;;;10381010;28;20186;-18
2021/05/05 21:27:16;;;;;;;4.37;1.70;;;22.90;43.10;;;;;;10383020;28;20210;-16
2021/05/05 22:01:35;;;;;;;4.60;1.73;;;22.80;43.20;;;;;;10373149;28;20213;-15
2021/05/05 23:26:16;;;;;;;3.53;1.67;;;22.20;44.10;;;;;;10605413;27;20611;-15
2021/05/05 23:31:58;;;;;;;3.77;1.40;;;22.10;43.90;;;;;;10656097;27;20680;-15
2021/05/05 23:38:03;;;;;;;3.07;1.43;;;22.20;44.10;;;;;;10656228;27;20212;-16
